Providence, Rhode Island
Traffic Map
Current Weather Conditions
Providence, Rhode Island
Overcast
Overcast

Feels Like: -2°
Wind Chill: -2° Ceiling: 4200
Heat Index: Visibility: 10mi
Dew Point: -4° Wind: 9mph
Humidity: 64% Direction: 240° (WSW)
Pressure: 29.98in Gusts: 0mph
Raw Report DataKPVD 110451Z 24008KT 10SM BKN042 BKN100 OVC140 02/M04 A2998 RMK AO2 SLP151 LAST T00171044 400391011 $
Traffic Incident Summary
Active as of:
Severity:
Category:
InformationThere was an issue retrieving the traffic information for this location. Please try a different location or try again shortly.
Advertisements